Time;durP1;ratioP1;P1;durP2;ratioP2;P2;SDS_P1;SDS_P2;PMS_P1;PMS_P2;Temp;Humidity;BMP_temperature;BMP_pressure;BME280_temperature;BME280_humidity;BME280_pressure;Samples;Min_cycle;Max_cycle;Signal;HPM_P1;HPM_P2
2023/10/12 00:02:04;;;;;;;9.77;7.47;;;18.20;82.10;;;;;;5053039;28;20021;-37
2023/10/12 00:07:38;;;;;;;13.93;8.43;;;18.20;82.40;;;;;;5053179;28;20056;-36
2023/10/12 00:12:44;;;;;;;10.55;7.45;;;18.10;82.70;;;;;;5053506;28;20044;-35
2023/10/12 00:17:52;;;;;;;10.38;7.57;;;18.10;82.90;;;;;;5053196;28;20025;-35
2023/10/12 00:20:44;;;;;;;11.43;8.23;;;18.10;83.10;;;;;;5053013;28;20491;-36
2023/10/12 00:23:10;;;;;;;12.75;8.18;;;18.10;83.30;;;;;;5052413;28;20449;-37
2023/10/12 00:25:46;;;;;;;14.68;8.75;;;18.10;83.50;;;;;;5052530;28;20013;-36
2023/10/12 00:28:22;;;;;;;15.68;8.15;;;18.10;83.70;;;;;;5052876;28;20029;-36
2023/10/12 00:30:57;;;;;;;12.68;8.15;;;18.10;83.80;;;;;;5052520;28;20052;-36
2023/10/12 00:33:23;;;;;;;15.48;8.65;;;18.00;83.90;;;;;;5052558;28;20070;-36
2023/10/12 00:36:01;;;;;;;14.20;9.05;;;18.00;84.00;;;;;;5052576;28;20033;-37
2023/10/12 00:38:29;;;;;;;14.70;9.05;;;18.00;84.10;;;;;;5053027;28;20419;-37
2023/10/12 00:41:03;;;;;;;12.32;8.90;;;18.00;84.20;;;;;;5052486;28;20032;-35
2023/10/12 00:43:36;;;;;;;12.77;8.45;;;18.00;84.30;;;;;;5052759;28;20040;-36
2023/10/12 00:46:21;;;;;;;12.27;9.05;;;18.00;84.40;;;;;;5052515;28;20507;-36
2023/10/12 00:48:56;;;;;;;12.77;8.77;;;17.90;84.40;;;;;;5052277;28;20017;-36
2023/10/12 00:51:23;;;;;;;16.70;8.93;;;17.90;84.50;;;;;;5052424;28;20393;-35
2023/10/12 00:53:57;;;;;;;13.43;9.13;;;17.90;84.70;;;;;;5052214;28;20032;-36
2023/10/12 00:56:28;;;;;;;14.32;9.32;;;17.90;84.80;;;;;;5052156;28;20074;-34
2023/10/12 00:58:55;;;;;;;12.90;8.55;;;17.90;85.00;;;;;;5052213;28;20021;-35
2023/10/12 01:01:23;;;;;;;11.55;9.13;;;17.90;85.20;;;;;;5052244;28;20122;-35
2023/10/12 01:03:50;;;;;;;13.63;9.45;;;17.90;85.30;;;;;;5052349;28;20112;-36
2023/10/12 01:06:28;;;;;;;13.45;9.38;;;17.80;85.50;;;;;;5052050;28;20025;-36
2023/10/12 01:08:58;;;;;;;16.15;9.73;;;17.80;85.70;;;;;;5052113;28;20025;-36
2023/10/12 01:11:26;;;;;;;15.48;10.20;;;17.80;85.90;;;;;;5052260;28;20036;-35
2023/10/12 01:16:42;;;;;;;15.73;10.80;;;17.70;86.30;;;;;;5052622;28;20429;-37
2023/10/12 01:19:08;;;;;;;19.80;11.07;;;17.70;86.90;;;;;;5052268;28;20103;-37
2023/10/12 01:21:37;;;;;;;19.75;11.40;;;17.60;87.00;;;;;;5051993;28;20025;-35
2023/10/12 01:24:13;;;;;;;15.00;10.60;;;17.60;87.30;;;;;;5051826;28;20075;-35
2023/10/12 01:26:43;;;;;;;19.13;10.85;;;17.60;87.50;;;;;;5052358;28;20355;-37
2023/10/12 01:29:20;;;;;;;17.40;11.57;;;17.50;87.70;;;;;;5051826;28;20553;-37
2023/10/12 01:31:53;;;;;;;17.75;11.38;;;17.50;88.00;;;;;;5050904;28;20036;-37
2023/10/12 01:34:24;;;;;;;15.80;11.18;;;17.50;88.30;;;;;;5052195;28;20025;-37
2023/10/12 01:36:52;;;;;;;18.15;11.93;;;17.40;88.50;;;;;;5051201;28;20029;-35
2023/10/12 01:39:18;;;;;;;21.20;13.77;;;17.40;88.80;;;;;;5051789;28;20067;-36
2023/10/12 01:41:47;;;;;;;24.85;13.07;;;17.30;89.30;;;;;;5051809;28;20040;-34
2023/10/12 01:44:13;;;;;;;17.58;11.77;;;17.30;89.50;;;;;;5051700;28;20100;-35
2023/10/12 01:46:40;;;;;;;22.10;12.82;;;17.30;89.70;;;;;;5051562;28;20048;-36
2023/10/12 01:49:10;;;;;;;19.45;12.05;;;17.20;90.00;;;;;;5051861;28;20481;-35
2023/10/12 01:51:44;;;;;;;18.73;13.55;;;17.20;90.00;;;;;;5051538;28;20016;-34
2023/10/12 01:54:12;;;;;;;17.65;11.65;;;17.20;90.10;;;;;;5051737;28;20400;-35
2023/10/12 01:56:38;;;;;;;19.00;13.07;;;17.20;90.20;;;;;;5051691;28;20481;-28
2023/10/12 01:59:07;;;;;;;17.48;10.50;;;17.20;90.30;;;;;;5051430;28;20025;-28
2023/10/12 02:01:34;;;;;;;15.75;11.43;;;17.20;90.30;;;;;;5051232;28;20025;-27
2023/10/12 02:04:03;;;;;;;15.82;10.88;;;17.20;90.40;;;;;;5051698;28;20017;-27
2023/10/12 02:06:29;;;;;;;16.23;11.35;;;17.20;90.40;;;;;;5051700;28;20057;-29
2023/10/12 02:09:02;;;;;;;16.45;10.10;;;17.20;90.70;;;;;;5051711;28;20411;-27
2023/10/12 02:11:36;;;;;;;15.80;10.35;;;17.20;90.50;;;;;;5051421;28;20025;-27
2023/10/12 02:14:02;;;;;;;13.35;10.02;;;17.20;90.50;;;;;;5051604;28;20239;-28
2023/10/12 02:16:31;;;;;;;17.10;11.25;;;17.20;90.50;;;;;;5051125;28;20024;-28
2023/10/12 02:18:58;;;;;;;14.43;10.38;;;17.20;90.50;;;;;;5051468;28;20029;-30
2023/10/12 02:21:26;;;;;;;15.65;10.52;;;17.20;90.50;;;;;;5050964;28;20033;-31
2023/10/12 02:26:36;;;;;;;14.50;10.88;;;17.20;90.60;;;;;;5051671;28;20052;-29
2023/10/12 02:31:34;;;;;;;15.95;9.35;;;17.30;90.60;;;;;;5051025;28;20040;-33
2023/10/12 02:34:02;;;;;;;12.15;9.48;;;17.30;90.60;;;;;;5050012;28;20481;-32
2023/10/12 02:36:28;;;;;;;13.35;9.02;;;17.30;90.50;;;;;;5051353;28;20021;-28
2023/10/12 02:38:59;;;;;;;12.07;8.80;;;17.20;90.50;;;;;;5051261;28;20031;-29
2023/10/12 02:41:25;;;;;;;12.32;8.20;;;17.30;90.50;;;;;;5050975;28;20440;-29
2023/10/12 02:43:55;;;;;;;9.93;7.95;;;17.30;90.60;;;;;;5051438;28;20028;-30
2023/10/12 02:46:25;;;;;;;9.80;8.07;;;17.30;90.60;;;;;;5051161;28;20029;-30
2023/10/12 02:48:53;;;;;;;10.73;7.53;;;17.30;90.50;;;;;;5055483;28;20397;-32
2023/10/12 02:51:22;;;;;;;14.30;7.47;;;17.20;90.50;;;;;;5054521;28;20458;-30
2023/10/12 02:53:48;;;;;;;12.90;7.28;;;17.30;90.50;;;;;;5054436;28;20087;-31
2023/10/12 02:56:24;;;;;;;14.98;7.78;;;17.20;90.50;;;;;;5054884;28;20025;-30
2023/10/12 02:58:50;;;;;;;15.60;7.32;;;17.10;90.50;;;;;;5054516;28;20078;-29
2023/10/12 03:01:19;;;;;;;13.02;7.00;;;17.10;90.50;;;;;;5054326;28;20037;-29
2023/10/12 03:03:48;;;;;;;12.00;6.55;;;17.10;90.60;;;;;;5054871;28;20048;-30
2023/10/12 03:06:21;;;;;;;12.60;6.68;;;17.00;90.60;;;;;;5054423;28;20025;-29
2023/10/12 03:09:10;;;;;;;11.57;6.95;;;17.00;90.60;;;;;;5054598;28;20021;-29
2023/10/12 03:11:36;;;;;;;12.88;6.20;;;16.90;90.60;;;;;;5054494;28;20434;-29
2023/10/12 03:14:35;;;;;;;10.52;6.07;;;16.90;90.60;;;;;;5054339;28;20096;-35
2023/10/12 03:16:54;;;;;;;9.68;5.63;;;16.90;90.60;;;;;;5053930;28;20508;-31
2023/10/12 03:19:29;;;;;;;11.13;5.97;;;16.90;90.60;;;;;;5054039;28;20017;-30
2023/10/12 03:22:03;;;;;;;9.90;5.63;;;16.80;90.70;;;;;;5054184;28;20025;-30
2023/10/12 03:24:44;;;;;;;12.88;6.60;;;16.90;90.70;;;;;;5054203;28;20013;-32
2023/10/12 03:27:13;;;;;;;11.02;6.03;;;16.90;90.70;;;;;;5054350;28;20477;-29
2023/10/12 03:29:51;;;;;;;9.38;6.00;;;16.90;90.70;;;;;;5053830;28;20045;-31
2023/10/12 03:32:23;;;;;;;9.85;5.70;;;16.90;90.70;;;;;;5053724;28;20037;-33
2023/10/12 03:37:18;;;;;;;8.02;5.78;;;16.90;90.70;;;;;;5054069;28;20404;-29
2023/10/12 03:44:54;;;;;;;10.52;5.65;;;17.00;90.70;;;;;;5054112;28;20128;-33
2023/10/12 03:52:34;;;;;;;11.68;6.05;;;17.00;90.70;;;;;;5053581;28;20040;-34
2023/10/12 04:02:45;;;;;;;8.73;6.05;;;17.10;90.70;;;;;;5053247;28;20032;-44
2023/10/12 04:13:09;;;;;;;10.65;5.85;;;17.10;90.70;;;;;;5053166;28;20032;-33
2023/10/12 04:18:19;;;;;;;12.73;5.75;;;17.10;90.60;;;;;;5053279;28;20028;-34
2023/10/12 04:20:45;;;;;;;10.23;6.25;;;17.10;90.60;;;;;;5052821;28;20468;-34
2023/10/12 04:23:43;;;;;;;8.52;5.95;;;17.10;90.70;;;;;;5053388;28;20090;-34
2023/10/12 04:28:53;;;;;;;9.35;5.63;;;17.10;90.70;;;;;;5053067;28;20120;-34
2023/10/12 04:31:32;;;;;;;12.98;6.60;;;17.10;90.70;;;;;;5052723;28;20550;-35
2023/10/12 04:36:48;;;;;;;8.30;5.63;;;17.10;90.70;;;;;;5052989;28;20040;-34
2023/10/12 04:39:25;;;;;;;10.57;6.00;;;17.10;90.70;;;;;;5052650;28;20029;-32
2023/10/12 04:46:49;;;;;;;10.95;6.07;;;17.10;90.80;;;;;;5052791;28;20021;-34
2023/10/12 04:51:49;;;;;;;12.05;5.60;;;17.10;90.80;;;;;;5052503;28;20083;-34
2023/10/12 04:54:23;;;;;;;12.07;6.50;;;17.10;90.70;;;;;;5052495;28;20025;-34
2023/10/12 04:57:32;;;;;;;10.27;6.25;;;17.10;90.80;;;;;;5052418;28;20061;-34
2023/10/12 04:59:50;;;;;;;10.40;6.30;;;17.10;90.80;;;;;;5051888;28;20033;-35
2023/10/12 05:02:27;;;;;;;9.85;6.18;;;17.10;90.70;;;;;;5052018;28;20029;-34
2023/10/12 05:09:51;;;;;;;10.43;6.65;;;17.00;90.80;;;;;;5052066;28;20053;-34
2023/10/12 05:12:17;;;;;;;10.43;6.38;;;17.00;90.80;;;;;;5051302;28;20024;-33
2023/10/12 05:14:43;;;;;;;12.98;7.10;;;17.00;90.80;;;;;;5052092;28;20059;-35
2023/10/12 05:17:09;;;;;;;12.52;7.00;;;17.00;90.80;;;;;;5052375;28;20052;-37
2023/10/12 05:19:35;;;;;;;11.52;6.80;;;17.00;90.90;;;;;;5051906;28;20033;-34
2023/10/12 05:22:00;;;;;;;11.30;6.13;;;17.00;90.90;;;;;;5052076;28;20033;-35
2023/10/12 05:24:26;;;;;;;10.52;6.45;;;17.00;90.90;;;;;;5051927;28;20037;-34
2023/10/12 05:26:57;;;;;;;10.68;6.40;;;16.90;90.90;;;;;;5051788;28;20099;-34
2023/10/12 05:31:59;;;;;;;12.70;6.90;;;17.00;90.90;;;;;;5050549;28;20033;-35
2023/10/12 05:39:46;;;;;;;12.45;6.88;;;17.00;90.90;;;;;;5052046;28;20029;-35
2023/10/12 05:42:15;;;;;;;9.40;6.45;;;17.00;90.90;;;;;;5051408;28;20090;-35
2023/10/12 05:44:44;;;;;;;12.02;6.35;;;17.00;90.90;;;;;;5051754;28;20155;-36
2023/10/12 05:47:12;;;;;;;12.40;7.07;;;17.00;90.90;;;;;;5051604;28;20033;-36
2023/10/12 05:49:40;;;;;;;11.15;6.78;;;17.00;91.00;;;;;;5051763;28;20051;-37
2023/10/12 05:52:09;;;;;;;9.70;6.07;;;17.00;91.00;;;;;;5051442;28;20107;-37
2023/10/12 05:54:39;;;;;;;10.80;6.40;;;17.00;91.00;;;;;;5051769;28;20497;-37
2023/10/12 05:57:16;;;;;;;10.65;6.47;;;17.00;91.00;;;;;;5051901;28;20013;-36
2023/10/12 05:59:42;;;;;;;9.50;6.20;;;17.00;91.00;;;;;;5051558;28;20017;-36
2023/10/12 06:02:09;;;;;;;8.13;5.65;;;16.90;90.90;;;;;;5051552;28;20025;-36
2023/10/12 06:04:35;;;;;;;8.65;5.90;;;16.90;91.00;;;;;;5051726;28;20025;-36
2023/10/12 06:07:00;;;;;;;8.80;5.50;;;16.90;91.00;;;;;;5051458;28;20366;-36
2023/10/12 06:09:35;;;;;;;5.30;3.80;;;16.80;91.00;;;;;;5051699;28;20025;-34
2023/10/12 06:12:08;;;;;;;3.10;2.33;;;16.70;91.00;;;;;;5051588;28;20469;-37
2023/10/12 06:14:38;;;;;;;1.95;1.73;;;16.60;90.90;;;;;;5051328;28;20029;-35
2023/10/12 06:17:07;;;;;;;3.13;1.08;;;16.50;90.90;;;;;;5051259;28;20033;-35
2023/10/12 06:19:36;;;;;;;0.93;0.90;;;16.30;91.00;;;;;;5051192;28;20493;-33
2023/10/12 06:22:19;;;;;;;0.60;0.60;;;16.10;91.00;;;;;;5052174;28;20380;-34
2023/10/12 06:24:49;;;;;;;0.50;0.50;;;16.00;91.20;;;;;;5053914;28;20184;-33
2023/10/12 06:29:47;;;;;;;0.77;0.20;;;15.70;91.10;;;;;;5055028;28;20073;-35
2023/10/12 06:32:19;;;;;;;0.40;0.40;;;15.60;91.10;;;;;;5054944;28;20025;-35
2023/10/12 06:35:03;;;;;;;0.95;0.60;;;15.50;91.20;;;;;;5054947;28;20029;-35
2023/10/12 06:43:57;;;;;;;2.28;0.90;;;15.20;91.30;;;;;;5055002;28;20393;-34
2023/10/12 06:45:52;;;;;;;1.58;1.30;;;15.10;91.20;;;;;;5054674;28;20112;-35
2023/10/12 06:51:05;;;;;;;2.35;1.30;;;15.00;91.40;;;;;;5054849;28;20091;-35
2023/10/12 06:53:34;;;;;;;2.80;1.33;;;15.00;91.30;;;;;;5054959;28;20481;-36
2023/10/12 06:59:07;;;;;;;4.05;1.58;;;14.90;91.30;;;;;;5055065;28;20121;-36
2023/10/12 07:02:09;;;;;;;4.07;1.30;;;14.90;91.30;;;;;;5054808;28;20029;-35
2023/10/12 07:04:27;;;;;;;3.55;1.50;;;14.80;91.30;;;;;;5054356;28;20023;-35
2023/10/12 07:06:56;;;;;;;2.40;1.20;;;14.80;91.40;;;;;;5054764;28;20504;-35
2023/10/12 07:09:38;;;;;;;4.05;1.40;;;14.80;91.40;;;;;;5054520;28;20025;-36
2023/10/12 07:12:09;;;;;;;3.28;1.45;;;14.80;91.30;;;;;;5054175;28;20025;-34
2023/10/12 07:14:46;;;;;;;4.03;1.50;;;14.90;91.30;;;;;;5054337;28;20025;-34
2023/10/12 07:17:12;;;;;;;3.28;1.42;;;14.90;91.30;;;;;;5054620;28;20385;-36
2023/10/12 07:19:42;;;;;;;3.33;1.65;;;14.90;91.30;;;;;;5054578;28;20355;-36
2023/10/12 07:22:15;;;;;;;3.28;1.70;;;15.00;91.30;;;;;;5054318;28;20025;-36
2023/10/12 07:24:42;;;;;;;2.78;1.42;;;15.10;91.30;;;;;;5054061;28;20056;-35
2023/10/12 07:27:21;;;;;;;2.80;1.50;;;15.00;91.10;;;;;;5054383;28;20017;-35
2023/10/12 07:29:47;;;;;;;2.45;1.55;;;15.00;91.20;;;;;;5053843;28;20592;-35
2023/10/12 07:34:54;;;;;;;3.63;1.85;;;15.10;91.20;;;;;;5053262;28;20035;-35
2023/10/12 07:37:20;;;;;;;4.63;2.17;;;15.10;91.20;;;;;;5053648;28;20032;-35
2023/10/12 07:39:46;;;;;;;4.18;1.92;;;15.10;91.10;;;;;;5054184;28;20341;-35
2023/10/12 07:42:12;;;;;;;4.55;1.90;;;15.10;91.10;;;;;;5053600;28;20029;-35
2023/10/12 07:44:53;;;;;;;3.85;1.77;;;15.20;91.10;;;;;;5053947;28;20017;-34
2023/10/12 07:47:31;;;;;;;3.20;1.80;;;15.20;91.10;;;;;;5053815;28;20490;-35
2023/10/12 07:50:06;;;;;;;2.75;1.50;;;15.20;91.10;;;;;;5053983;28;20028;-33
2023/10/12 07:55:12;;;;;;;2.95;1.50;;;15.20;91.10;;;;;;5053663;28;20485;-38
2023/10/12 07:57:38;;;;;;;2.33;1.60;;;15.20;91.00;;;;;;5053519;28;20036;-35
2023/10/12 08:03:05;;;;;;;2.70;1.38;;;15.30;91.10;;;;;;5053624;28;20106;-28
2023/10/12 08:21:38;;;;;;;2.17;0.80;;;15.30;91.00;;;;;;5052980;28;20392;-34
2023/10/12 08:24:09;;;;;;;1.23;0.80;;;15.30;91.00;;;;;;5052580;28;20052;-29
2023/10/12 08:32:04;;;;;;;0.55;0.40;;;15.30;91.00;;;;;;5053007;28;20045;-30
2023/10/12 08:44:58;;;;;;;3.58;0.60;;;15.40;91.00;;;;;;5052615;28;20044;-31
2023/10/12 08:50:08;;;;;;;0.77;0.50;;;15.40;90.90;;;;;;5052794;28;20378;-32
2023/10/12 08:52:36;;;;;;;1.05;0.50;;;15.40;90.90;;;;;;5052489;28;20049;-35
2023/10/12 08:55:11;;;;;;;1.27;0.40;;;15.40;90.90;;;;;;5052303;28;20029;-34
2023/10/12 08:57:55;;;;;;;0.63;0.63;;;15.40;90.90;;;;;;5050977;28;20057;-31
2023/10/12 09:03:05;;;;;;;1.00;0.88;;;15.40;90.90;;;;;;5052387;28;20329;-29
2023/10/12 09:05:32;;;;;;;1.52;0.80;;;15.30;90.90;;;;;;5052510;28;20485;-28
2023/10/12 09:10:55;;;;;;;1.95;0.98;;;15.30;90.80;;;;;;5052224;28;20043;-31
2023/10/12 09:13:35;;;;;;;1.85;0.65;;;15.30;91.10;;;;;;5052311;28;20063;-31
2023/10/12 09:16:09;;;;;;;0.63;0.57;;;15.30;90.80;;;;;;5052097;28;20063;-30
2023/10/12 09:18:50;;;;;;;1.42;0.75;;;15.30;90.80;;;;;;5052074;28;20082;-31
2023/10/12 09:23:50;;;;;;;2.05;0.50;;;15.30;90.80;;;;;;5052152;28;20091;-43
2023/10/12 09:26:32;;;;;;;1.05;0.55;;;15.30;90.90;;;;;;5051795;28;20040;-31
2023/10/12 09:29:20;;;;;;;0.70;0.70;;;15.40;90.90;;;;;;5051823;28;20112;-32
2023/10/12 09:36:55;;;;;;;1.45;0.60;;;15.40;90.80;;;;;;5051938;28;20090;-33
2023/10/12 09:39:26;;;;;;;0.68;0.68;;;15.40;90.80;;;;;;5051680;28;20431;-34
2023/10/12 09:42:09;;;;;;;0.70;0.70;;;15.50;91.10;;;;;;5051697;28;20064;-33
2023/10/12 09:44:39;;;;;;;0.55;0.55;;;15.50;90.80;;;;;;5051687;28;20064;-43
2023/10/12 09:47:15;;;;;;;1.08;0.70;;;15.40;90.80;;;;;;5051653;28;20029;-44
2023/10/12 09:49:54;;;;;;;1.20;0.80;;;15.40;90.80;;;;;;5051534;28;20025;-37
2023/10/12 09:52:23;;;;;;;1.25;0.82;;;15.50;90.80;;;;;;5051401;28;20032;-30
2023/10/12 09:55:05;;;;;;;1.17;0.90;;;15.50;90.80;;;;;;5051381;28;20087;-33
2023/10/12 09:57:32;;;;;;;1.73;0.95;;;15.50;90.80;;;;;;5050898;28;20032;-29
2023/10/12 10:00:17;;;;;;;2.20;1.00;;;15.50;90.80;;;;;;5051441;28;20110;-35
2023/10/12 10:02:44;;;;;;;1.80;1.20;;;15.50;90.70;;;;;;5051328;28;20059;-28
2023/10/12 10:07:53;;;;;;;1.60;1.50;;;15.50;90.70;;;;;;5051781;28;20067;-29
2023/10/12 10:10:33;;;;;;;2.55;1.75;;;15.50;90.80;;;;;;5051296;28;20134;-29
2023/10/12 10:13:02;;;;;;;3.85;1.85;;;15.50;90.70;;;;;;5051065;28;20021;-29
2023/10/12 10:15:43;;;;;;;2.97;1.60;;;15.50;90.70;;;;;;5049919;28;20028;-46
2023/10/12 10:18:16;;;;;;;2.55;1.90;;;15.50;90.70;;;;;;5051516;28;20056;-41
2023/10/12 10:20:58;;;;;;;2.78;1.75;;;15.60;90.80;;;;;;5051341;28;20104;-50
2023/10/12 10:23:24;;;;;;;2.13;1.88;;;15.50;91.10;;;;;;5051402;28;20461;-48
2023/10/12 10:26:00;;;;;;;3.30;2.42;;;15.60;90.80;;;;;;5051350;28;20017;-44
2023/10/12 10:28:32;;;;;;;3.90;1.80;;;15.60;90.80;;;;;;5051227;28;20041;-36
2023/10/12 10:31:01;;;;;;;3.53;2.47;;;15.60;90.80;;;;;;5051404;28;20029;-36
2023/10/12 10:33:28;;;;;;;3.63;2.38;;;15.60;90.80;;;;;;5051279;28;20481;-36
2023/10/12 10:36:12;;;;;;;3.47;2.47;;;15.70;90.80;;;;;;5051561;28;20116;-35
2023/10/12 10:38:57;;;;;;;2.22;2.05;;;15.70;90.80;;;;;;5051475;28;20044;-35
2023/10/12 10:41:46;;;;;;;2.13;1.92;;;15.70;90.70;;;;;;5051001;28;20397;-37
2023/10/12 10:44:29;;;;;;;2.53;2.10;;;15.70;90.70;;;;;;5051465;28;20033;-37
2023/10/12 10:47:06;;;;;;;2.10;1.90;;;15.80;90.70;;;;;;5050844;28;20079;-36
2023/10/12 10:49:32;;;;;;;2.30;2.10;;;15.80;90.60;;;;;;5051372;28;20063;-37
2023/10/12 10:52:03;;;;;;;5.35;2.75;;;15.90;90.70;;;;;;5050756;28;20374;-36
2023/10/12 10:54:33;;;;;;;2.80;2.60;;;15.90;90.70;;;;;;5051086;28;20039;-36
2023/10/12 10:57:03;;;;;;;2.33;2.10;;;15.90;90.60;;;;;;5051042;28;20029;-35
2023/10/12 10:59:30;;;;;;;2.88;2.35;;;16.00;90.60;;;;;;5050880;28;20071;-35
2023/10/12 11:01:59;;;;;;;2.45;2.15;;;16.10;90.60;;;;;;5050939;28;20025;-38
2023/10/12 11:07:03;;;;;;;3.65;2.80;;;16.20;90.60;;;;;;5051309;28;20480;-36
2023/10/12 11:09:31;;;;;;;3.40;2.83;;;16.20;90.60;;;;;;5052867;28;20075;-36
2023/10/12 11:12:00;;;;;;;4.53;2.45;;;16.20;90.60;;;;;;5054213;28;20032;-37
2023/10/12 11:14:31;;;;;;;4.10;2.45;;;16.20;90.60;;;;;;5054690;28;20032;-37
2023/10/12 11:16:57;;;;;;;3.30;3.00;;;16.20;90.60;;;;;;5054546;28;20078;-37
2023/10/12 11:19:23;;;;;;;3.10;2.80;;;16.20;90.60;;;;;;5054416;28;20079;-38
2023/10/12 11:21:51;;;;;;;3.38;3.00;;;16.20;90.70;;;;;;5054243;28;20060;-37
2023/10/12 11:24:18;;;;;;;3.58;3.10;;;16.20;90.70;;;;;;5054251;28;20025;-37
2023/10/12 11:26:57;;;;;;;3.70;3.17;;;16.30;90.70;;;;;;5054363;28;20033;-37
2023/10/12 11:29:24;;;;;;;3.30;3.00;;;16.30;90.60;;;;;;5054162;28;20196;-36
2023/10/12 11:32:09;;;;;;;3.70;3.28;;;16.30;90.60;;;;;;5054640;28;20083;-36
2023/10/12 11:34:44;;;;;;;4.82;3.28;;;16.30;90.60;;;;;;5054266;28;20107;-36
2023/10/12 11:37:12;;;;;;;4.22;3.67;;;16.40;90.60;;;;;;5054229;28;20036;-33
2023/10/12 11:39:42;;;;;;;4.40;3.45;;;16.40;90.60;;;;;;5054152;28;20037;-36
2023/10/12 11:42:08;;;;;;;3.90;3.35;;;16.40;90.60;;;;;;5053556;28;20037;-34
2023/10/12 11:44:36;;;;;;;4.60;4.13;;;16.50;90.70;;;;;;5054054;28;20032;-38
2023/10/12 11:47:06;;;;;;;4.13;3.72;;;16.50;90.60;;;;;;5053919;28;20079;-37
2023/10/12 11:49:49;;;;;;;6.38;4.30;;;16.50;90.60;;;;;;5053727;28;20029;-37
2023/10/12 11:52:29;;;;;;;6.68;3.92;;;16.60;90.60;;;;;;5053601;28;20029;-38
2023/10/12 11:55:18;;;;;;;4.95;3.90;;;16.50;90.60;;;;;;5053840;28;20464;-37
2023/10/12 11:57:49;;;;;;;4.93;4.43;;;16.50;90.60;;;;;;5053913;28;20025;-38
2023/10/12 12:00:21;;;;;;;5.13;4.38;;;16.50;90.60;;;;;;5053626;28;20029;-41
2023/10/12 12:02:57;;;;;;;4.73;4.10;;;16.50;90.60;;;;;;5053602;28;20041;-38
2023/10/12 12:05:33;;;;;;;6.97;5.00;;;16.50;90.70;;;;;;5053372;28;20307;-39
2023/10/12 12:08:05;;;;;;;5.13;4.53;;;16.50;90.70;;;;;;5053660;28;20444;-38
2023/10/12 12:10:38;;;;;;;6.40;4.93;;;16.50;90.70;;;;;;5053525;28;20037;-33
2023/10/12 12:13:12;;;;;;;7.70;5.07;;;16.50;90.70;;;;;;5053670;28;20051;-38
2023/10/12 12:15:43;;;;;;;;;;;16.60;90.80;;;;;;5053909;28;20021;-37
2023/10/12 12:18:19;;;;;;;5.20;4.35;;;16.50;90.70;;;;;;5053703;28;19958;-38
2023/10/12 12:20:50;;;;;;;6.28;3.97;;;16.50;90.70;;;;;;5053028;28;20074;-40
2023/10/12 12:23:19;;;;;;;5.85;4.30;;;16.50;90.70;;;;;;5053583;28;20021;-37
2023/10/12 12:25:46;;;;;;;7.03;5.03;;;16.50;90.80;;;;;;5053713;28;20020;-39
2023/10/12 12:28:16;;;;;;;6.25;5.07;;;16.60;90.80;;;;;;5053413;28;20445;-37
2023/10/12 12:30:46;;;;;;;7.22;4.90;;;16.60;90.80;;;;;;5053461;28;20051;-39
2023/10/12 12:33:15;;;;;;;5.88;4.50;;;16.60;90.80;;;;;;5053342;28;20052;-38
2023/10/12 12:35:45;;;;;;;6.32;4.75;;;16.70;90.80;;;;;;5053301;28;20472;-39
2023/10/12 12:38:22;;;;;;;5.78;5.15;;;16.70;90.90;;;;;;5052908;28;20025;-37
2023/10/12 12:40:49;;;;;;;5.68;4.57;;;16.70;90.90;;;;;;5052977;28;20372;-38
2023/10/12 12:43:14;;;;;;;6.53;5.30;;;16.70;90.80;;;;;;5053123;28;20495;-40
2023/10/12 12:45:41;;;;;;;6.28;4.80;;;16.80;90.90;;;;;;5052913;28;20025;-37
2023/10/12 12:48:07;;;;;;;6.38;5.10;;;16.80;90.90;;;;;;5053082;28;20507;-37
2023/10/12 12:50:32;;;;;;;9.07;5.28;;;16.80;90.90;;;;;;5053207;28;20104;-38
2023/10/12 12:52:58;;;;;;;6.40;5.63;;;16.70;90.90;;;;;;5052936;28;20033;-37
2023/10/12 12:55:27;;;;;;;5.85;5.20;;;16.80;90.90;;;;;;5052764;28;20082;-37
2023/10/12 12:57:56;;;;;;;7.57;5.25;;;16.70;90.90;;;;;;5053328;28;20429;-38
2023/10/12 13:00:22;;;;;;;7.30;5.30;;;16.70;90.90;;;;;;5052911;28;20021;-37
2023/10/12 13:02:48;;;;;;;6.85;5.63;;;16.70;91.00;;;;;;5052548;28;20035;-37
2023/10/12 13:05:14;;;;;;;6.03;5.43;;;16.70;91.00;;;;;;5052526;28;20024;-40
2023/10/12 13:07:40;;;;;;;7.45;5.45;;;16.70;91.00;;;;;;5052828;28;20028;-36
2023/10/12 13:10:07;;;;;;;6.47;5.40;;;16.80;91.00;;;;;;5052543;28;20074;-37
2023/10/12 13:12:33;;;;;;;7.00;5.60;;;16.80;91.00;;;;;;5052910;28;20040;-37
2023/10/12 13:15:01;;;;;;;6.68;5.25;;;16.80;91.00;;;;;;5052301;28;20044;-38
2023/10/12 13:17:30;;;;;;;6.65;5.78;;;16.80;91.00;;;;;;5052323;28;20032;-36
2023/10/12 13:19:59;;;;;;;6.60;5.80;;;16.80;91.00;;;;;;5052161;28;20103;-38
2023/10/12 13:22:25;;;;;;;7.70;6.10;;;16.80;91.10;;;;;;5051981;28;20029;-37
2023/10/12 13:24:56;;;;;;;9.13;6.40;;;16.80;91.10;;;;;;5052301;28;20469;-37
2023/10/12 13:27:23;;;;;;;8.13;5.65;;;16.80;91.10;;;;;;5051980;28;20048;-37
2023/10/12 13:29:49;;;;;;;6.80;5.97;;;16.80;91.10;;;;;;5051839;28;20481;-37
2023/10/12 13:32:17;;;;;;;9.48;6.25;;;16.70;91.10;;;;;;5050971;28;20025;-38
2023/10/12 13:34:43;;;;;;;7.07;6.38;;;16.70;91.10;;;;;;5052172;28;20436;-37
2023/10/12 13:37:08;;;;;;;7.10;6.15;;;16.70;91.20;;;;;;5052035;28;20037;-37
2023/10/12 13:39:34;;;;;;;9.02;6.50;;;16.70;91.30;;;;;;5052394;28;20032;-46
2023/10/12 13:42:00;;;;;;;7.55;6.65;;;16.70;91.30;;;;;;5052162;28;20025;-37
2023/10/12 13:44:25;;;;;;;9.48;6.88;;;16.70;91.30;;;;;;5052344;28;20060;-38
2023/10/12 13:46:51;;;;;;;9.13;6.28;;;16.70;91.30;;;;;;5051995;28;20458;-36
2023/10/12 13:49:20;;;;;;;10.20;7.25;;;16.70;91.30;;;;;;5052122;28;20025;-36
2023/10/12 13:51:48;;;;;;;9.50;7.50;;;16.70;91.30;;;;;;5052208;28;20029;-39
2023/10/12 13:54:14;;;;;;;9.05;7.03;;;16.70;91.30;;;;;;5052231;28;20408;-38
2023/10/12 13:56:47;;;;;;;9.73;7.97;;;16.70;91.30;;;;;;5052365;28;20103;-36
2023/10/12 13:59:14;;;;;;;10.35;7.25;;;16.70;91.40;;;;;;5051906;28;20041;-38
2023/10/12 14:01:40;;;;;;;11.48;6.38;;;16.60;91.40;;;;;;5051976;28;20056;-37
2023/10/12 14:07:01;;;;;;;9.88;6.75;;;16.60;91.50;;;;;;5051424;28;20540;-38
2023/10/12 14:09:28;;;;;;;7.72;6.50;;;16.60;91.50;;;;;;5052015;28;20029;-38
2023/10/12 14:11:54;;;;;;;8.75;6.60;;;16.60;91.60;;;;;;5052046;28;20072;-43
2023/10/12 14:14:20;;;;;;;7.18;6.47;;;16.60;91.60;;;;;;5051937;28;20032;-38
2023/10/12 14:16:46;;;;;;;9.18;7.10;;;16.60;91.60;;;;;;5052364;28;20078;-39
2023/10/12 14:19:16;;;;;;;10.27;8.10;;;16.60;91.60;;;;;;5052189;28;20051;-38
2023/10/12 14:21:46;;;;;;;16.20;8.85;;;16.60;91.60;;;;;;5051697;28;20087;-36
2023/10/12 14:24:11;;;;;;;15.13;10.20;;;16.60;91.70;;;;;;5051744;28;20116;-41
2023/10/12 14:26:37;;;;;;;12.35;9.20;;;16.60;91.70;;;;;;5051759;28;20100;-37
2023/10/12 14:29:05;;;;;;;10.13;7.93;;;16.60;91.70;;;;;;5051588;28;20049;-36
2023/10/12 14:31:31;;;;;;;11.88;8.70;;;16.60;91.80;;;;;;5051641;28;20108;-34
2023/10/12 14:33:59;;;;;;;9.10;7.50;;;16.60;91.80;;;;;;5051319;28;20133;-34
2023/10/12 14:36:26;;;;;;;10.23;7.70;;;16.60;91.80;;;;;;5051521;28;20457;-35
2023/10/12 14:38:55;;;;;;;9.30;7.72;;;16.60;91.90;;;;;;5051491;28;20045;-37
2023/10/12 14:41:25;;;;;;;9.48;8.13;;;16.60;91.90;;;;;;5051174;28;20021;-35
2023/10/12 14:43:51;;;;;;;9.90;8.27;;;16.70;91.90;;;;;;5053505;28;20024;-35
2023/10/12 14:46:19;;;;;;;11.32;8.70;;;16.60;91.90;;;;;;5054902;28;20103;-33
2023/10/12 14:48:49;;;;;;;10.27;7.65;;;16.60;91.90;;;;;;5055198;28;20116;-35
2023/10/12 14:51:17;;;;;;;10.63;8.75;;;16.60;91.90;;;;;;5054832;28;20056;-35
2023/10/12 14:53:47;;;;;;;10.68;8.18;;;16.60;91.90;;;;;;5054960;28;20111;-46
2023/10/12 14:56:14;;;;;;;12.45;9.50;;;16.60;91.90;;;;;;5054960;28;20028;-35
2023/10/12 14:58:40;;;;;;;12.02;9.32;;;16.70;92.00;;;;;;5053474;28;20049;-39
2023/10/12 15:01:13;;;;;;;10.23;8.88;;;16.70;92.00;;;;;;5054484;28;20056;-35
2023/10/12 15:03:45;;;;;;;10.18;8.40;;;16.80;92.00;;;;;;5054724;28;20047;-36
2023/10/12 15:06:12;;;;;;;12.15;9.43;;;16.80;92.00;;;;;;5054927;28;20558;-34
2023/10/12 15:08:38;;;;;;;12.02;8.93;;;16.80;92.00;;;;;;5054588;28;20078;-34
2023/10/12 15:11:07;;;;;;;14.20;9.55;;;16.80;92.00;;;;;;5054790;28;20036;-42
2023/10/12 15:13:37;;;;;;;9.85;8.43;;;16.90;92.00;;;;;;5054205;28;20115;-34
2023/10/12 15:16:12;;;;;;;10.00;7.93;;;16.90;92.00;;;;;;5054469;28;20033;-35
2023/10/12 15:18:41;;;;;;;9.75;8.05;;;16.90;92.10;;;;;;5054435;28;20037;-34
2023/10/12 15:21:11;;;;;;;9.55;7.95;;;16.90;92.40;;;;;;5054742;28;20508;-34
2023/10/12 15:23:36;;;;;;;10.88;7.65;;;16.90;92.10;;;;;;5054261;28;20385;-34
2023/10/12 15:26:02;;;;;;;9.27;7.35;;;16.90;92.10;;;;;;5054388;28;20032;-35
2023/10/12 15:28:28;;;;;;;8.68;6.65;;;16.90;92.10;;;;;;5054104;28;20464;-35
2023/10/12 15:30:54;;;;;;;8.10;6.60;;;17.00;92.10;;;;;;5054065;28;20086;-35
2023/10/12 15:33:22;;;;;;;7.88;6.00;;;17.00;92.10;;;;;;5054181;28;20025;-34